createdAt,value
2023-01-02T00:02:05.862Z,99.90
2023-01-02T00:04:32.678Z,99.90
2023-01-02T00:06:59.973Z,99.90
2023-01-02T00:09:26.840Z,99.90
2023-01-02T00:11:53.620Z,99.90
2023-01-02T00:14:20.418Z,99.90
2023-01-02T00:16:47.204Z,99.90
2023-01-02T00:19:14.019Z,99.90
2023-01-02T00:21:41.914Z,99.90
2023-01-02T00:24:09.011Z,99.90
2023-01-02T00:26:35.884Z,99.90
2023-01-02T00:29:02.709Z,99.90
2023-01-02T00:31:29.584Z,99.90
2023-01-02T00:33:56.445Z,99.90
2023-01-02T00:36:23.464Z,99.90
2023-01-02T00:38:50.284Z,99.90
2023-01-02T00:41:17.185Z,99.90
2023-01-02T00:43:43.962Z,99.90
2023-01-02T00:46:12.127Z,99.90
2023-01-02T00:48:39.604Z,99.90
2023-01-02T00:51:06.513Z,99.90
2023-01-02T00:53:33.304Z,99.90
2023-01-02T00:56:00.141Z,99.90
2023-01-02T00:58:26.938Z,99.90
2023-01-02T01:00:53.805Z,99.90
2023-01-02T01:03:20.656Z,99.90
2023-01-02T01:05:47.474Z,99.90
2023-01-02T01:08:14.432Z,99.90
2023-01-02T01:10:41.257Z,99.90
2023-01-02T01:13:08.114Z,99.90
2023-01-02T01:15:36.051Z,99.90
2023-01-02T01:18:03.152Z,99.90
2023-01-02T01:20:29.999Z,99.90
2023-01-02T01:22:56.843Z,99.90
2023-01-02T01:25:23.657Z,99.90
2023-01-02T01:27:54.188Z,99.90
2023-01-02T01:30:21.216Z,99.90
2023-01-02T01:32:48.008Z,99.90
2023-01-02T01:35:14.914Z,99.90
2023-01-02T01:37:41.751Z,99.90
2023-01-02T01:40:08.906Z,99.90
2023-01-02T01:42:36.397Z,99.90
2023-01-02T01:45:03.973Z,99.90
2023-01-02T01:47:40.262Z,99.90
2023-01-02T01:50:18.346Z,99.90
2023-01-02T01:52:51.973Z,99.90
2023-01-02T01:55:24.075Z,99.90
2023-01-02T01:57:58.921Z,99.90
2023-01-02T02:00:25.871Z,99.90
2023-01-02T02:02:58.058Z,99.90
2023-01-02T02:05:28.192Z,99.90
2023-01-02T02:08:33.323Z,99.90
2023-01-02T02:11:00.999Z,99.90
2023-01-02T02:13:30.850Z,99.90
2023-01-02T02:16:11.304Z,99.90
2023-01-02T02:18:59.681Z,99.90
2023-01-02T02:21:54.436Z,99.90
2023-01-02T02:24:59.925Z,99.90
2023-01-02T02:28:05.151Z,99.90
2023-01-02T02:30:55.727Z,99.90
2023-01-02T02:33:28.323Z,99.90
2023-01-02T02:36:39.537Z,99.90
2023-01-02T02:39:36.489Z,99.90
2023-01-02T02:42:18.893Z,99.90
2023-01-02T02:44:54.930Z,99.90
2023-01-02T02:47:33.731Z,99.90
2023-01-02T02:50:03.543Z,99.90
2023-01-02T02:52:44.152Z,99.90
2023-01-02T02:55:24.418Z,99.90
2023-01-02T02:57:53.059Z,99.90
2023-01-02T03:00:22.855Z,99.90
2023-01-02T03:02:50.171Z,99.90
2023-01-02T03:05:39.437Z,99.90
2023-01-02T03:08:24.754Z,99.90
2023-01-02T03:11:00.151Z,99.90
2023-01-02T03:14:01.387Z,99.90
2023-01-02T03:16:33.604Z,99.90
2023-01-02T03:19:09.285Z,99.90
2023-01-02T03:21:51.682Z,99.90
2023-01-02T03:24:21.204Z,99.90
2023-01-02T03:26:53.537Z,99.90
2023-01-02T03:29:37.449Z,99.90
2023-01-02T03:32:09.520Z,99.90
2023-01-02T03:34:38.821Z,99.90
2023-01-02T03:37:12.154Z,99.90
2023-01-02T03:39:46.096Z,99.90
2023-01-02T03:42:17.272Z,99.90
2023-01-02T03:44:54.548Z,99.90
2023-01-02T03:47:32.511Z,99.90
2023-01-02T03:50:04.985Z,99.90
2023-01-02T03:52:32.098Z,99.90
2023-01-02T03:55:00.753Z,99.90
2023-01-02T03:57:57.473Z,99.90
2023-01-02T04:00:34.570Z,99.90
2023-01-02T04:03:12.399Z,99.90
2023-01-02T04:05:45.821Z,99.90
2023-01-02T04:08:25.128Z,99.90
2023-01-02T04:10:58.478Z,99.90
2023-01-02T04:13:34.367Z,99.90
2023-01-02T04:16:04.223Z,99.90
2023-01-02T04:18:36.702Z,99.90
2023-01-02T04:21:11.867Z,99.90
2023-01-02T04:23:50.009Z,99.90
2023-01-02T04:26:21.232Z,99.90
2023-01-02T04:28:49.004Z,99.90
2023-01-02T04:31:20.995Z,99.90
2023-01-02T04:34:00.476Z,99.90
2023-01-02T04:36:27.892Z,99.90
2023-01-02T04:38:54.809Z,99.90
2023-01-02T04:41:29.018Z,99.90
2023-01-02T04:43:59.255Z,99.90
2023-01-02T04:46:27.346Z,99.90
2023-01-02T04:48:55.017Z,99.90
2023-01-02T04:51:22.316Z,99.90
2023-01-02T04:53:50.312Z,99.90
2023-01-02T04:56:17.960Z,99.90
2023-01-02T04:58:46.708Z,99.90
2023-01-02T05:01:16.819Z,99.90
2023-01-02T05:03:46.175Z,99.90
2023-01-02T05:06:13.428Z,99.90
2023-01-02T05:08:40.358Z,99.90
2023-01-02T05:11:08.651Z,99.90
2023-01-02T05:13:35.833Z,99.90
2023-01-02T05:16:03.902Z,99.90
2023-01-02T05:18:32.190Z,99.90
2023-01-02T05:21:30.184Z,99.90
2023-01-02T05:23:59.476Z,99.90
2023-01-02T05:26:26.336Z,99.90
2023-01-02T05:28:54.324Z,99.90
2023-01-02T05:31:21.261Z,99.90
2023-01-02T05:33:52.697Z,99.90
2023-01-02T05:36:19.866Z,99.90
2023-01-02T05:38:46.809Z,99.90
2023-01-02T05:41:13.726Z,99.90
2023-01-02T05:43:40.573Z,99.90
2023-01-02T05:46:18.384Z,99.90
2023-01-02T05:48:46.093Z,99.90
2023-01-02T05:51:15.636Z,99.90
2023-01-02T05:53:43.379Z,99.90
2023-01-02T05:56:15.628Z,99.90
2023-01-02T05:58:44.767Z,99.90
2023-01-02T06:01:19.967Z,99.90
2023-01-02T06:03:48.467Z,99.90
2023-01-02T06:06:17.135Z,99.90
2023-01-02T06:08:44.445Z,99.90
2023-01-02T06:11:11.315Z,99.90
2023-01-02T06:13:39.226Z,99.90
2023-01-02T06:16:08.960Z,99.90
2023-01-02T06:18:37.051Z,99.90
2023-01-02T06:21:09.943Z,99.90
2023-01-02T06:23:37.624Z,99.90
2023-01-02T06:26:08.723Z,99.90
2023-01-02T06:28:35.564Z,99.90
2023-01-02T06:31:04.711Z,99.90
2023-01-02T06:33:31.822Z,99.90
2023-01-02T06:36:03.863Z,99.90
2023-01-02T06:38:31.348Z,99.90
2023-01-02T06:41:00.715Z,99.90
2023-01-02T06:43:29.002Z,99.90
2023-01-02T06:46:07.031Z,99.90
2023-01-02T06:48:35.025Z,99.90
2023-01-02T06:51:09.791Z,99.90
2023-01-02T06:53:38.467Z,99.90
2023-01-02T06:56:06.131Z,99.90
2023-01-02T06:58:35.020Z,99.90
2023-01-02T07:01:07.767Z,99.90
2023-01-02T07:03:34.655Z,99.90
2023-01-02T07:06:03.756Z,99.90
2023-01-02T07:08:31.422Z,99.90
2023-01-02T07:11:14.251Z,99.90
2023-01-02T07:13:42.467Z,99.90
2023-01-02T07:16:11.835Z,99.90
2023-01-02T07:18:38.964Z,99.90
2023-01-02T07:21:07.253Z,99.90
2023-01-02T07:23:34.346Z,99.90
2023-01-02T07:26:02.717Z,99.90
2023-01-02T07:28:30.512Z,99.90
2023-01-02T07:31:02.707Z,99.90
2023-01-02T07:33:30.407Z,99.90
2023-01-02T07:35:59.169Z,99.90
2023-01-02T07:38:26.286Z,99.90
2023-01-02T07:40:53.415Z,99.90
2023-01-02T07:43:20.875Z,99.90
2023-01-02T07:45:50.371Z,99.90
2023-01-02T07:48:18.520Z,99.90
2023-01-02T07:50:45.875Z,99.90
2023-01-02T07:53:13.138Z,99.90
2023-01-02T07:55:40.127Z,99.90
2023-01-02T07:58:07.175Z,99.90
2023-01-02T08:00:34.033Z,99.90
2023-01-02T08:03:01.313Z,99.90
2023-01-02T08:05:28.235Z,99.90
2023-01-02T08:07:55.108Z,99.90
2023-01-02T08:10:22.015Z,99.90
2023-01-02T08:12:48.837Z,99.90
2023-01-02T08:15:15.686Z,99.90
2023-01-02T08:17:42.545Z,99.90
2023-01-02T08:20:10.502Z,99.90
2023-01-02T08:22:37.677Z,99.90
2023-01-02T08:25:04.923Z,99.90
2023-01-02T08:27:32.157Z,97.20
2023-01-02T08:29:59.125Z,94.50
2023-01-02T08:32:26.342Z,91.90
2023-01-02T08:34:53.251Z,91.50
2023-01-02T08:37:20.081Z,90.40
2023-01-02T08:39:46.920Z,89.00
2023-01-02T08:42:13.704Z,87.80
2023-01-02T08:44:40.628Z,87.50
2023-01-02T08:47:07.477Z,86.70
2023-01-02T08:49:34.345Z,84.90
2023-01-02T08:52:01.255Z,84.80
2023-01-02T08:54:28.043Z,82.40
2023-01-02T08:56:54.888Z,80.90
2023-01-02T08:59:23.893Z,79.70
2023-01-02T09:01:50.998Z,78.80
2023-01-02T09:04:18.273Z,78.50
2023-01-02T09:06:45.786Z,78.00
2023-01-02T09:09:15.258Z,77.50
2023-01-02T09:11:51.091Z,75.20
2023-01-02T09:14:20.452Z,75.80
2023-01-02T09:16:47.963Z,75.60
2023-01-02T09:19:14.861Z,74.50
2023-01-02T09:21:41.765Z,74.00
2023-01-02T09:24:09.556Z,73.20
2023-01-02T09:26:38.151Z,71.90
2023-01-02T09:29:05.370Z,72.40
2023-01-02T09:31:32.275Z,70.90
2023-01-02T09:33:59.300Z,69.70
2023-01-02T09:36:26.177Z,68.80
2023-01-02T09:39:01.426Z,67.70
2023-01-02T09:41:41.046Z,65.80
2023-01-02T09:44:21.216Z,65.10
2023-01-02T09:47:02.187Z,63.50
2023-01-02T09:49:32.856Z,61.30
2023-01-02T09:51:59.901Z,60.60
2023-01-02T09:54:33.302Z,58.60
2023-01-02T09:57:15.286Z,58.30
2023-01-02T09:59:59.696Z,57.60
2023-01-02T10:02:47.688Z,55.80
2023-01-02T10:05:17.332Z,54.50
2023-01-02T10:08:08.841Z,52.90
2023-01-02T10:10:46.338Z,52.10
2023-01-02T10:13:44.188Z,50.50
2023-01-02T10:16:19.867Z,50.20
2023-01-02T10:18:51.337Z,48.60
2023-01-02T10:21:46.613Z,47.80
2023-01-02T10:24:15.540Z,44.70
2023-01-02T10:26:47.267Z,44.10
2023-01-02T10:29:29.180Z,44.20
2023-01-02T10:32:05.652Z,44.40
2023-01-02T10:34:56.105Z,44.20
2023-01-02T10:37:22.913Z,43.10
2023-01-02T10:39:50.672Z,42.80
2023-01-02T10:42:17.617Z,42.40
2023-01-02T10:44:46.030Z,42.60
2023-01-02T10:47:35.492Z,43.80
2023-01-02T10:50:05.766Z,44.00
2023-01-02T10:52:43.395Z,45.60
2023-01-02T10:55:10.238Z,47.20
2023-01-02T10:57:46.109Z,47.50
2023-01-02T11:00:24.107Z,48.40
2023-01-02T11:03:05.754Z,48.90
2023-01-02T11:05:32.672Z,48.30
2023-01-02T11:07:59.612Z,48.20
2023-01-02T11:10:31.267Z,48.40
2023-01-02T11:13:09.491Z,48.20
2023-01-02T11:15:47.545Z,48.10
2023-01-02T11:18:24.547Z,49.10
2023-01-02T11:20:54.686Z,49.90
2023-01-02T11:23:26.319Z,51.00
2023-01-02T11:25:54.688Z,51.70
2023-01-02T11:28:28.249Z,52.50
2023-01-02T11:31:09.978Z,52.00
2023-01-02T11:33:38.375Z,52.20
2023-01-02T11:36:05.137Z,52.20
2023-01-02T11:38:51.982Z,52.10
2023-01-02T11:42:02.179Z,52.20
2023-01-02T11:44:32.320Z,51.80
2023-01-02T11:47:00.982Z,52.10
2023-01-02T11:49:35.393Z,52.10
2023-01-02T11:52:04.611Z,52.40
2023-01-02T11:54:39.691Z,52.60
2023-01-02T11:57:18.910Z,53.20
2023-01-02T11:59:48.565Z,52.60
2023-01-02T12:02:23.371Z,52.50
2023-01-02T12:04:50.225Z,52.40
2023-01-02T12:07:44.733Z,52.30
2023-01-02T12:10:42.653Z,52.30
2023-01-02T12:13:17.451Z,52.90
2023-01-02T12:15:55.725Z,52.90
2023-01-02T12:18:41.648Z,52.10
2023-01-02T12:21:24.674Z,51.40
2023-01-02T12:24:19.732Z,51.00
2023-01-02T12:27:15.721Z,50.90
2023-01-02T12:29:46.082Z,50.90
2023-01-02T12:32:44.326Z,50.90
2023-01-02T12:35:23.360Z,51.50
2023-01-02T12:37:55.163Z,51.80
2023-01-02T12:40:44.212Z,52.50
2023-01-02T12:43:28.943Z,52.90
2023-01-02T12:46:09.012Z,53.10
2023-01-02T12:49:18.296Z,53.60
2023-01-02T12:51:55.882Z,53.10
2023-01-02T12:54:40.657Z,53.30
2023-01-02T12:57:22.599Z,53.40
2023-01-02T12:59:52.381Z,53.00
2023-01-02T13:02:22.371Z,53.10
2023-01-02T13:04:55.205Z,53.00
2023-01-02T13:07:21.970Z,53.50
2023-01-02T13:09:50.887Z,54.00
2023-01-02T13:12:22.197Z,54.20
2023-01-02T13:15:01.842Z,54.70
2023-01-02T13:17:52.698Z,55.40
2023-01-02T13:20:50.666Z,56.40
2023-01-02T13:23:29.725Z,56.90
2023-01-02T13:26:05.924Z,56.90
2023-01-02T13:28:33.958Z,57.30
2023-01-02T13:31:44.255Z,58.00
2023-01-02T13:33:54.529Z,57.90
2023-01-02T13:36:36.846Z,58.70
2023-01-02T13:39:26.243Z,59.70
2023-01-02T13:42:17.921Z,59.50
2023-01-02T13:44:48.545Z,59.60
2023-01-02T13:47:31.790Z,60.20
2023-01-02T13:50:16.425Z,60.60
2023-01-02T13:53:03.775Z,61.40
2023-01-02T13:55:59.679Z,62.20
2023-01-02T13:58:40.819Z,62.70
2023-01-02T14:01:40.469Z,63.20
2023-01-02T14:04:12.767Z,64.00
2023-01-02T14:06:41.905Z,64.50
2023-01-02T14:09:12.583Z,65.10
2023-01-02T14:11:55.710Z,65.40
2023-01-02T14:14:41.409Z,65.90
2023-01-02T14:17:39.969Z,66.40
2023-01-02T14:20:18.637Z,66.90
2023-01-02T14:22:59.376Z,67.80
2023-01-02T14:25:26.888Z,68.20
2023-01-02T14:28:00.057Z,68.90
2023-01-02T14:30:37.500Z,69.50
2023-01-02T14:33:07.718Z,70.10
2023-01-02T14:35:57.780Z,70.40
2023-01-02T14:38:27.492Z,71.30
2023-01-02T14:41:14.623Z,72.10
2023-01-02T14:43:42.421Z,72.70
2023-01-02T14:46:28.098Z,73.90
2023-01-02T14:48:58.490Z,74.20
2023-01-02T14:51:38.247Z,75.00
2023-01-02T14:54:26.278Z,75.70
2023-01-02T14:57:18.911Z,76.10
2023-01-02T14:59:48.934Z,76.90
2023-01-02T15:02:19.646Z,77.60
2023-01-02T15:04:52.676Z,79.10
2023-01-02T15:07:32.546Z,79.10
2023-01-02T15:10:04.276Z,80.10
2023-01-02T15:12:53.638Z,80.90
2023-01-02T15:15:25.588Z,81.90
2023-01-02T15:17:54.051Z,83.10
2023-01-02T15:20:24.470Z,84.10
2023-01-02T15:22:56.497Z,85.00
2023-01-02T15:25:40.252Z,86.10
2023-01-02T15:28:22.784Z,87.40
2023-01-02T15:30:59.756Z,88.60
2023-01-02T15:33:30.190Z,90.00
2023-01-02T15:36:01.640Z,90.50
2023-01-02T15:38:28.650Z,91.00
2023-01-02T15:40:56.519Z,91.50
2023-01-02T15:43:44.131Z,92.00
2023-01-02T15:46:12.388Z,92.50
2023-01-02T15:48:40.623Z,93.10
2023-01-02T15:51:13.721Z,93.40
2023-01-02T15:53:42.922Z,93.90
2023-01-02T15:56:14.385Z,94.30
2023-01-02T15:58:49.434Z,94.80
2023-01-02T16:01:21.323Z,95.30
2023-01-02T16:04:03.934Z,95.50
2023-01-02T16:06:39.413Z,95.90
2023-01-02T16:09:08.609Z,96.10
2023-01-02T16:11:46.881Z,96.40
2023-01-02T16:14:20.317Z,96.60
2023-01-02T16:16:55.631Z,96.80
2023-01-02T16:19:31.383Z,96.90
2023-01-02T16:22:19.413Z,97.10
2023-01-02T16:24:53.821Z,97.30
2023-01-02T16:27:27.204Z,97.30
2023-01-02T16:29:54.971Z,97.40
2023-01-02T16:32:25.481Z,97.50
2023-01-02T16:35:15.912Z,97.50
2023-01-02T16:38:18.812Z,97.60
2023-01-02T16:41:01.378Z,97.60
2023-01-02T16:43:30.763Z,97.70
2023-01-02T16:45:59.168Z,97.90
2023-01-02T16:48:28.596Z,97.90
2023-01-02T16:50:57.029Z,98.10
2023-01-02T16:53:33.799Z,98.20
2023-01-02T16:56:00.687Z,98.40
2023-01-02T16:58:27.690Z,98.60
2023-01-02T17:00:55.561Z,98.80
2023-01-02T17:03:25.267Z,99.00
2023-01-02T17:06:02.174Z,99.20
2023-01-02T17:08:31.710Z,99.60
2023-01-02T17:10:59.363Z,99.70
2023-01-02T17:13:27.116Z,99.70
2023-01-02T17:15:54.057Z,99.30
2023-01-02T17:18:21.082Z,99.60
2023-01-02T17:20:48.390Z,99.70
2023-01-02T17:23:15.248Z,99.90
2023-01-02T17:25:43.734Z,99.90
2023-01-02T17:28:10.781Z,99.90
2023-01-02T17:30:37.782Z,99.90
2023-01-02T17:33:04.730Z,99.90
2023-01-02T17:35:34.837Z,99.90
2023-01-02T17:38:01.646Z,99.90
2023-01-02T17:40:28.534Z,99.90
2023-01-02T17:42:55.423Z,99.90
2023-01-02T17:45:22.317Z,99.90
2023-01-02T17:48:01.363Z,99.90
2023-01-02T17:50:31.837Z,99.90
2023-01-02T17:52:59.851Z,99.90
2023-01-02T17:55:26.675Z,99.90
2023-01-02T17:57:53.468Z,99.90
2023-01-02T18:00:23.342Z,99.90
2023-01-02T18:02:51.701Z,99.90
2023-01-02T18:05:18.658Z,99.90
2023-01-02T18:07:45.454Z,99.90
2023-01-02T18:10:17.362Z,99.90
2023-01-02T18:12:46.871Z,99.80
2023-01-02T18:15:22.018Z,99.90
2023-01-02T18:17:49.794Z,99.90
2023-01-02T18:20:19.962Z,99.90
2023-01-02T18:22:49.955Z,99.70
2023-01-02T18:25:21.628Z,99.20
2023-01-02T18:27:48.756Z,98.40
2023-01-02T18:30:22.331Z,98.20
2023-01-02T18:32:50.537Z,98.20
2023-01-02T18:35:55.672Z,97.90
2023-01-02T18:38:33.591Z,97.80
2023-01-02T18:41:00.613Z,97.60
2023-01-02T18:43:37.760Z,97.40
2023-01-02T18:46:15.494Z,97.30
2023-01-02T18:48:42.869Z,97.20
2023-01-02T18:51:23.439Z,97.20
2023-01-02T18:53:56.053Z,97.40
2023-01-02T18:56:29.257Z,97.50
2023-01-02T18:59:05.314Z,97.60
2023-01-02T19:01:39.290Z,97.50
2023-01-02T19:04:18.943Z,97.50
2023-01-02T19:06:51.975Z,97.60
2023-01-02T19:09:38.988Z,97.70
2023-01-02T19:12:33.233Z,97.80
2023-01-02T19:15:01.527Z,97.80
2023-01-02T19:17:31.756Z,97.80
2023-01-02T19:20:00.270Z,97.80
2023-01-02T19:22:33.378Z,98.00
2023-01-02T19:25:08.870Z,98.10
2023-01-02T19:27:39.293Z,98.10
2023-01-02T19:30:23.239Z,98.10
2023-01-02T19:32:49.999Z,98.20
2023-01-02T19:35:25.559Z,98.20
2023-01-02T19:37:52.379Z,98.30
2023-01-02T19:40:23.716Z,98.30
2023-01-02T19:42:51.853Z,98.40
2023-01-02T19:45:26.789Z,98.40
2023-01-02T19:47:54.143Z,98.50
2023-01-02T19:50:25.777Z,98.50
2023-01-02T19:52:52.924Z,98.60
2023-01-02T19:55:19.751Z,98.60
2023-01-02T19:57:47.441Z,98.80
2023-01-02T20:00:16.478Z,99.20
2023-01-02T20:02:49.611Z,99.30
2023-01-02T20:05:21.452Z,99.50
2023-01-02T20:07:50.297Z,99.70
2023-01-02T20:10:17.294Z,99.90
2023-01-02T20:12:44.892Z,99.90
2023-01-02T20:15:17.480Z,99.90
2023-01-02T20:17:44.970Z,99.90
2023-01-02T20:20:17.889Z,99.90
2023-01-02T20:22:45.313Z,99.90
2023-01-02T20:25:14.205Z,99.90
2023-01-02T20:27:41.349Z,99.90
2023-01-02T20:30:09.583Z,99.90
2023-01-02T20:32:36.418Z,99.90
2023-01-02T20:35:04.499Z,99.90
2023-01-02T20:37:31.298Z,99.90
2023-01-02T20:39:58.360Z,99.90
2023-01-02T20:42:25.382Z,99.90
2023-01-02T20:44:52.363Z,99.90
2023-01-02T20:47:19.621Z,99.90
2023-01-02T20:49:46.384Z,99.90
2023-01-02T20:52:13.267Z,99.90
2023-01-02T20:54:40.140Z,99.90
2023-01-02T20:57:06.973Z,99.90
2023-01-02T20:59:33.840Z,99.90
2023-01-02T21:02:00.914Z,99.90
2023-01-02T21:04:34.545Z,99.90
2023-01-02T21:07:04.036Z,99.90
2023-01-02T21:09:30.865Z,99.90
2023-01-02T21:11:57.681Z,99.90
2023-01-02T21:14:24.480Z,99.90
2023-01-02T21:16:51.446Z,99.90
2023-01-02T21:19:18.240Z,99.90
2023-01-02T21:21:45.021Z,99.90
2023-01-02T21:24:11.873Z,99.90
2023-01-02T21:26:38.631Z,99.90
2023-01-02T21:29:05.618Z,99.90
2023-01-02T21:31:32.571Z,99.90
2023-01-02T21:33:59.482Z,99.90
2023-01-02T21:36:26.258Z,99.90
2023-01-02T21:38:53.096Z,99.90
2023-01-02T21:41:40.122Z,99.90
2023-01-02T21:44:06.911Z,99.90
2023-01-02T21:46:33.725Z,99.90
2023-01-02T21:49:00.808Z,99.90
2023-01-02T21:51:32.659Z,99.90
2023-01-02T21:54:00.235Z,99.90
2023-01-02T21:56:27.334Z,99.90
2023-01-02T21:58:55.097Z,99.90
2023-01-02T22:01:22.138Z,99.90
2023-01-02T22:03:49.172Z,99.90
2023-01-02T22:06:16.461Z,99.90
2023-01-02T22:08:43.297Z,99.90
2023-01-02T22:11:28.586Z,99.90
2023-01-02T22:13:55.369Z,99.90
2023-01-02T22:16:22.138Z,99.90
2023-01-02T22:18:50.678Z,99.90
2023-01-02T22:21:17.456Z,99.90
2023-01-02T22:23:44.251Z,99.90
2023-01-02T22:26:11.159Z,99.90
2023-01-02T22:28:38.021Z,99.90
2023-01-02T22:31:04.891Z,99.90
2023-01-02T22:33:31.754Z,99.90
2023-01-02T22:35:58.559Z,99.90
2023-01-02T22:38:25.384Z,99.90
2023-01-02T22:40:52.320Z,99.90
2023-01-02T22:43:24.474Z,99.90
2023-01-02T22:45:53.381Z,99.90
2023-01-02T22:48:31.324Z,99.90
2023-01-02T22:51:00.484Z,99.90
2023-01-02T22:53:36.941Z,99.90
2023-01-02T22:56:14.222Z,99.90
2023-01-02T22:58:41.251Z,99.90
2023-01-02T23:01:21.828Z,99.90
2023-01-02T23:03:49.005Z,99.90
2023-01-02T23:06:21.951Z,99.90
2023-01-02T23:08:49.691Z,99.90
2023-01-02T23:11:16.759Z,99.90
2023-01-02T23:13:44.331Z,99.90
2023-01-02T23:16:29.770Z,99.90
2023-01-02T23:19:14.656Z,99.90
2023-01-02T23:21:44.120Z,99.90
2023-01-02T23:24:13.318Z,99.90
2023-01-02T23:26:43.192Z,99.90
2023-01-02T23:29:11.002Z,99.90
2023-01-02T23:31:40.095Z,99.90
2023-01-02T23:34:08.040Z,99.90
2023-01-02T23:36:34.975Z,99.90
2023-01-02T23:39:02.140Z,99.90
2023-01-02T23:41:28.901Z,99.90
2023-01-02T23:43:55.695Z,99.90
2023-01-02T23:46:22.611Z,99.90
2023-01-02T23:48:49.432Z,99.90
2023-01-02T23:51:16.863Z,99.90
2023-01-02T23:53:43.777Z,99.90
2023-01-02T23:56:37.822Z,99.90
2023-01-02T23:59:10.662Z,99.90
